Time;durP1;ratioP1;P1;durP2;ratioP2;P2;SDS_P1;SDS_P2;PMS_P1;PMS_P2;Temp;Humidity;BMP_temperature;BMP_pressure;BME280_temperature;BME280_humidity;BME280_pressure;Samples;Min_cycle;Max_cycle;Signal;HPM_P1;HPM_P2
2023/07/07 00:00:51;;;;;;;5.68;5.13;;;;;;;14.08;100.00;101995.19;5005897;28;20053;-80
2023/07/07 00:03:18;;;;;;;8.70;5.78;;;;;;;14.06;100.00;101984.56;5031874;28;20053;-80
2023/07/07 00:05:48;;;;;;;7.72;6.07;;;;;;;14.02;100.00;101981.00;5022586;28;20064;-81
2023/07/07 00:08:15;;;;;;;6.88;5.28;;;;;;;14.02;100.00;101988.06;4995440;28;20072;-80
2023/07/07 00:10:44;;;;;;;9.27;6.15;;;;;;;13.99;100.00;101990.72;5024361;28;20064;-81
2023/07/07 00:13:13;;;;;;;6.68;5.95;;;;;;;13.96;100.00;101993.34;5050346;28;20059;-81
2023/07/07 00:15:44;;;;;;;7.95;5.25;;;;;;;13.94;100.00;101984.50;5023822;28;20060;-80
2023/07/07 00:18:26;;;;;;;10.43;5.95;;;;;;;13.92;100.00;101986.25;5016092;28;20049;-82
2023/07/07 00:21:00;;;;;;;8.20;5.60;;;;;;;13.90;100.00;101988.00;5032598;28;20042;-80
2023/07/07 00:23:32;;;;;;;9.05;5.28;;;;;;;13.88;100.00;101980.03;4989161;28;20068;-81
2023/07/07 00:26:19;;;;;;;7.43;5.15;;;;;;;13.84;100.00;101984.41;5031430;28;20052;-80
2023/07/07 00:28:50;;;;;;;9.73;5.63;;;;;;;13.81;100.00;101979.06;5044149;28;20045;-82
2023/07/07 00:31:22;;;;;;;5.93;5.32;;;;;;;13.80;100.00;101981.75;5012616;28;20091;-82
2023/07/07 00:33:50;;;;;;;7.57;5.57;;;;;;;13.79;100.00;101975.53;5030818;28;20049;-82
2023/07/07 00:36:17;;;;;;;5.95;5.18;;;;;;;13.77;100.00;101987.00;5029992;28;20041;-80
2023/07/07 00:38:47;;;;;;;8.40;5.55;;;;;;;13.74;100.00;101992.25;5028464;28;20049;-80
2023/07/07 00:41:15;;;;;;;6.75;5.88;;;;;;;13.72;100.00;101980.78;4979305;28;20045;-81
2023/07/07 00:43:59;;;;;;;8.60;5.85;;;;;;;13.71;100.00;101982.53;5038641;28;20045;-80
2023/07/07 00:46:27;;;;;;;7.28;5.50;;;;;;;13.68;100.00;101985.16;5023285;28;23389;-82
2023/07/07 00:48:56;;;;;;;7.80;6.18;;;;;;;13.67;100.00;101994.00;5021529;28;20053;-80
2023/07/07 00:51:30;;;;;;;8.50;5.22;;;;;;;13.67;100.00;101990.44;5049217;28;20681;-81
2023/07/07 00:53:58;;;;;;;8.55;6.13;;;;;;;13.66;100.00;101986.91;5038387;28;20545;-80
2023/07/07 00:56:34;;;;;;;6.03;5.10;;;;;;;13.64;100.00;101989.53;5014501;28;20042;-81
2023/07/07 00:59:07;;;;;;;9.48;5.78;;;;;;;13.62;100.00;101991.28;5019224;28;20052;-81
2023/07/07 01:01:36;;;;;;;5.50;5.00;;;;;;;13.60;100.00;101995.69;5055676;28;20092;-82
2023/07/07 01:04:07;;;;;;;9.13;5.68;;;;;;;13.58;100.00;101988.59;5017083;28;20046;-81
2023/07/07 01:06:41;;;;;;;7.70;5.60;;;;;;;13.57;100.00;101989.47;5023447;28;20060;-80
2023/07/07 01:09:11;;;;;;;9.55;6.53;;;;;;;13.54;100.00;101987.69;5044907;28;20042;-81
2023/07/07 01:11:39;;;;;;;8.30;6.00;;;;;;;13.52;100.00;101989.44;4997646;28;20044;-80
2023/07/07 01:14:12;;;;;;;9.95;5.88;;;;;;;13.50;100.00;101996.47;5042730;28;20049;-79
2023/07/07 01:17:19;;;;;;;7.65;5.80;;;;;;;13.49;100.00;101991.16;5046024;28;20052;-80
2023/07/07 01:20:03;;;;;;;7.57;5.60;;;;;;;13.44;100.00;101992.03;5045305;28;20049;-81
2023/07/07 01:22:59;;;;;;;10.93;5.55;;;;;;;13.41;100.00;101985.81;5053440;28;20052;-81
2023/07/07 01:25:46;;;;;;;6.57;5.55;;;;;;;13.37;100.00;101999.88;5002237;28;20061;-81
2023/07/07 01:28:36;;;;;;;7.60;6.53;;;;;;;13.32;100.00;101991.00;5053650;28;20072;-80
2023/07/07 01:31:16;;;;;;;7.88;6.25;;;;;;;13.29;100.00;101993.56;5010730;28;20045;-81
2023/07/07 01:33:46;;;;;;;7.40;6.63;;;;;;;13.27;100.00;101993.59;5034901;28;20056;-81
2023/07/07 01:36:13;;;;;;;8.55;6.90;;;;;;;13.26;100.00;101994.44;5042219;28;20049;-80
2023/07/07 01:38:45;;;;;;;7.93;7.10;;;;;;;13.25;100.00;101988.28;5023781;28;20041;-81
2023/07/07 01:41:39;;;;;;;9.35;6.45;;;;;;;13.25;100.00;101990.91;5009647;28;26503;-81
2023/07/07 01:44:28;;;;;;;7.43;6.68;;;;;;;13.24;100.00;101989.13;5050418;28;20045;-80
2023/07/07 01:47:11;;;;;;;9.90;6.47;;;;;;;13.23;100.00;101982.06;5037603;28;20037;-81
2023/07/07 01:49:48;;;;;;;9.00;7.07;;;;;;;13.22;100.00;101982.06;5033126;28;20068;-80
2023/07/07 01:52:22;;;;;;;11.27;7.28;;;;;;;13.22;100.00;101990.88;5023997;28;20048;-81
2023/07/07 01:55:00;;;;;;;10.15;6.90;;;;;;;13.22;100.00;101979.41;5039470;28;20061;-79
2023/07/07 01:57:31;;;;;;;9.25;6.28;;;;;;;13.21;100.00;101973.22;5011898;28;20040;-80
2023/07/07 01:59:59;;;;;;;8.82;7.03;;;;;;;13.22;100.00;101974.09;5038380;28;20049;-80
2023/07/07 02:02:26;;;;;;;9.52;6.85;;;;;;;13.20;100.00;101971.44;5027447;28;20055;-78
2023/07/07 02:04:56;;;;;;;13.55;7.70;;;;;;;13.18;100.00;101967.91;5010203;28;20061;-80
2023/07/07 02:07:23;;;;;;;11.75;8.20;;;;;;;13.17;100.00;101974.03;5025183;28;20048;-80
2023/07/07 02:09:51;;;;;;;8.88;7.43;;;;;;;13.16;100.00;101971.41;5024670;28;20049;-80
2023/07/07 02:12:18;;;;;;;8.38;7.32;;;;;;;13.14;100.00;101967.88;5023192;28;20059;-80
2023/07/07 02:14:47;;;;;;;10.75;7.40;;;;;;;13.14;100.00;101967.88;5038213;28;20052;-80
2023/07/07 02:17:15;;;;;;;9.95;7.38;;;;;;;13.13;100.00;101971.38;5012453;28;20056;-80
2023/07/07 02:19:43;;;;;;;10.88;7.78;;;;;;;13.12;100.00;101972.22;5021195;28;20048;-81
2023/07/07 02:22:12;;;;;;;11.18;7.80;;;;;;;13.09;100.00;101967.78;5015951;28;20037;-80
2023/07/07 02:24:40;;;;;;;8.93;7.50;;;;;;;13.06;100.00;101968.66;5054955;28;20052;-80
2023/07/07 02:27:10;;;;;;;11.85;8.63;;;;;;;13.03;100.00;101963.31;4993805;28;20056;-80
2023/07/07 02:29:39;;;;;;;10.88;7.57;;;;;;;13.00;100.00;101965.91;5038891;28;20060;-81
2023/07/07 02:32:07;;;;;;;11.10;8.35;;;;;;;12.99;100.00;101976.50;5042727;28;20519;-80
2023/07/07 02:34:36;;;;;;;8.70;7.75;;;;;;;13.00;100.00;101975.63;4996680;28;20050;-80
2023/07/07 02:37:10;;;;;;;15.48;8.55;;;;;;;12.97;100.00;101978.25;5017614;28;20052;-80
2023/07/07 02:39:40;;;;;;;8.77;7.93;;;;;;;12.95;100.00;101974.69;5018662;28;20045;-81
2023/07/07 02:42:07;;;;;;;10.60;7.93;;;;;;;12.94;100.00;101981.75;5045200;28;20045;-82
2023/07/07 02:44:38;;;;;;;11.60;7.85;;;;;;;12.92;100.00;101978.19;4997715;28;20061;-81
2023/07/07 02:47:07;;;;;;;8.68;7.88;;;;;;;12.91;100.00;101975.53;5034892;28;20057;-81
2023/07/07 02:49:35;;;;;;;10.50;9.30;;;;;;;12.88;100.00;101977.25;5007325;28;20049;-79
2023/07/07 02:52:04;;;;;;;15.80;9.02;;;;;;;12.87;100.00;101978.16;5027556;28;20056;-81
2023/07/07 02:54:32;;;;;;;13.20;8.90;;;;;;;12.87;100.00;101978.16;5018719;28;20048;-80
2023/07/07 02:56:59;;;;;;;9.07;8.18;;;;;;;12.86;100.00;101981.66;5023576;28;20523;-80
2023/07/07 02:59:27;;;;;;;12.00;9.68;;;;;;;12.85;100.00;101974.59;5008979;28;20052;-81
2023/07/07 03:01:55;;;;;;;12.85;9.90;;;;;;;12.85;100.00;101981.63;5035876;28;20052;-80
2023/07/07 03:04:24;;;;;;;13.35;9.30;;;;;;;12.85;100.00;101976.34;5021270;28;20060;-81
2023/07/07 03:06:52;;;;;;;12.27;9.32;;;;;;;12.85;100.00;101982.53;5035880;28;20049;-81
2023/07/07 03:09:21;;;;;;;14.25;9.63;;;;;;;12.84;100.00;101975.47;5022789;28;20041;-81
2023/07/07 03:11:48;;;;;;;12.50;8.63;;;;;;;12.83;100.00;101980.72;5003505;28;20049;-80
2023/07/07 03:14:21;;;;;;;11.48;8.57;;;;;;;12.80;100.00;101981.59;5014546;28;20052;-81
2023/07/07 03:16:51;;;;;;;13.10;8.98;;;;;;;12.79;100.00;101989.50;4996468;28;20061;-80
2023/07/07 03:19:28;;;;;;;14.73;9.80;;;;;;;12.76;100.00;101990.34;5019550;28;20045;-79
2023/07/07 03:22:04;;;;;;;14.77;10.20;;;;;;;12.75;100.00;101988.56;5003572;28;20061;-80
2023/07/07 03:24:44;;;;;;;14.83;10.03;;;;;;;12.74;100.00;101986.81;5050957;28;20127;-80
2023/07/07 03:27:29;;;;;;;11.93;9.23;;;;;;;12.74;100.00;101985.91;5050397;28;20044;-80
2023/07/07 03:29:57;;;;;;;12.32;10.02;;;;;;;12.72;100.00;101988.56;5012330;28;20060;-80
2023/07/07 03:32:26;;;;;;;15.07;10.20;;;;;;;12.72;100.00;101992.94;4975885;28;20056;-81
2023/07/07 03:35:00;;;;;;;16.98;11.18;;;;;;;12.71;100.00;101989.41;5024399;28;20060;-80
2023/07/07 03:37:28;;;;;;;12.43;9.65;;;;;;;12.71;100.00;101994.69;5017853;28;20441;-81
2023/07/07 03:39:58;;;;;;;17.98;10.57;;;;;;;12.72;100.00;101993.84;5017688;28;20045;-80
2023/07/07 03:42:25;;;;;;;19.30;11.38;;;;;;;12.73;100.00;101995.59;5019993;28;20049;-81
2023/07/07 03:44:54;;;;;;;18.42;11.38;;;;;;;12.74;100.00;102000.03;5040432;28;20057;-80
2023/07/07 03:47:24;;;;;;;13.82;9.80;;;;;;;12.75;100.00;101993.84;4996160;28;20056;-81
2023/07/07 03:49:52;;;;;;;14.85;9.93;;;;;;;12.75;100.00;101993.84;5013006;28;20056;-81
2023/07/07 03:52:21;;;;;;;16.40;11.70;;;;;;;12.77;100.00;101999.19;5021766;28;20045;-82
2023/07/07 03:54:50;;;;;;;19.65;13.32;;;;;;;12.77;100.00;102004.47;5017584;28;20552;-80
2023/07/07 03:57:18;;;;;;;18.13;11.20;;;;;;;12.77;100.00;102013.28;5044330;28;20512;-79
2023/07/07 03:59:47;;;;;;;13.35;10.38;;;;;;;12.78;100.00;102012.41;5024650;28;20057;-79
2023/07/07 04:02:16;;;;;;;16.43;12.03;;;;;;;12.81;100.00;102007.16;4980204;28;20052;-80
2023/07/07 04:04:43;;;;;;;18.67;12.93;;;;;;;12.84;100.00;102012.50;5010966;28;20056;-80
2023/07/07 04:07:11;;;;;;;19.50;11.90;;;;;;;12.88;100.00;102010.78;5016673;28;20053;-82
2023/07/07 04:09:39;;;;;;;15.02;10.45;;;;;;;12.92;100.00;102011.69;5027282;28;20919;-81
2023/07/07 04:12:09;;;;;;;19.23;11.88;;;;;;;12.99;100.00;102017.09;5030803;28;20049;-79
2023/07/07 04:14:36;;;;;;;18.77;11.70;;;;;;;13.19;100.00;102016.41;5034180;28;20053;-80
2023/07/07 04:17:04;;;;;;;15.65;10.90;;;;;;;13.53;100.00;102012.38;5026402;28;20061;-80
2023/07/07 04:19:32;;;;;;;18.30;11.60;;;;;;;14.03;100.00;102001.34;5022176;28;20036;-82
2023/07/07 04:21:59;;;;;;;15.32;10.90;;;;;;;14.78;100.00;102010.63;5023074;28;20037;-80
2023/07/07 04:24:27;;;;;;;15.38;10.18;;;;;;;15.53;100.00;102007.31;4989457;28;20045;-80
2023/07/07 04:26:54;;;;;;;13.63;9.20;;;;;;;16.23;100.00;102009.06;5027657;28;20080;-81
2023/07/07 04:29:21;;;;;;;14.85;9.55;;;;;;;16.91;100.00;102003.59;5022409;28;20045;-80
2023/07/07 04:31:49;;;;;;;19.08;8.63;;;;;;;17.52;100.00;102007.66;5017132;28;20056;-79
2023/07/07 04:34:16;;;;;;;13.45;8.73;;;;;;;18.09;100.00;102004.53;4999587;28;20049;-81
2023/07/07 04:36:44;;;;;;;11.32;8.00;;;;;;;18.61;100.00;102006.66;5025435;28;20049;-80
2023/07/07 04:39:12;;;;;;;8.88;7.78;;;;;;;18.87;100.00;102002.81;5026486;28;20049;-80
2023/07/07 04:41:40;;;;;;;14.02;8.32;;;;;;;19.23;100.00;102005.88;5026493;28;20045;-80
2023/07/07 04:44:07;;;;;;;11.82;7.60;;;;;;;19.65;100.00;102001.66;5016571;28;20059;-80
2023/07/07 04:46:38;;;;;;;12.77;9.02;;;;;;;20.06;100.00;102008.13;5030584;28;20045;-80
2023/07/07 04:49:07;;;;;;;15.48;8.15;;;;;;;20.51;100.00;102017.09;5034618;28;20050;-80
2023/07/07 04:51:39;;;;;;;10.20;7.68;;;;;;;20.90;100.00;102012.75;5008878;28;20443;-81
2023/07/07 04:54:09;;;;;;;12.48;8.77;;;;;;;21.30;100.00;102013.69;5033002;28;20044;-81
2023/07/07 04:56:37;;;;;;;12.68;8.60;;;;;;;21.61;100.00;102014.75;5025356;28;20060;-80
2023/07/07 04:59:05;;;;;;;13.07;7.47;;;;;;;21.90;100.00;102010.44;5025794;28;20057;-80
2023/07/07 05:01:33;;;;;;;11.55;8.55;;;;;;;22.20;100.00;102011.44;5028600;28;20180;-81
2023/07/07 05:04:02;;;;;;;11.43;7.78;;;;;;;22.52;100.00;102019.56;5042725;28;20056;-80
2023/07/07 05:06:33;;;;;;;12.52;7.80;;;;;;;22.82;100.00;102014.25;4994236;28;20044;-81
2023/07/07 05:09:01;;;;;;;;;;;;;;;23.03;100.00;102021.69;5030539;28;20053;-80
2023/07/07 05:11:30;;;;;;;13.68;7.50;;;;;;;23.32;100.00;102015.41;5016027;28;19936;-81
2023/07/07 05:13:58;;;;;;;12.93;8.13;;;;;;;23.57;100.00;102019.97;5031910;28;20052;-82
2023/07/07 05:16:32;;;;;;;10.57;7.72;;;;;;;23.82;100.00;102028.19;5030871;28;20057;-81
2023/07/07 05:19:00;;;;;;;14.38;8.32;;;;;;;24.02;100.00;102021.22;5024980;28;20053;-80
2023/07/07 05:21:28;;;;;;;15.48;8.10;;;;;;;24.17;100.00;102018.00;5020280;28;20049;-81
2023/07/07 05:23:57;;;;;;;14.35;9.15;;;;;;;24.37;100.00;102025.38;5036679;28;20060;-81
2023/07/07 05:26:27;;;;;;;11.27;8.48;;;;;;;24.56;100.00;102025.59;5015902;28;20037;-81
2023/07/07 05:29:03;;;;;;;12.45;7.75;;;;;;;24.78;100.00;102036.44;5019630;28;20057;-81
2023/07/07 05:31:31;;;;;;;14.15;7.50;;;;;;;24.96;100.00;102034.00;5002088;28;20057;-81
2023/07/07 05:33:59;;;;;;;11.48;7.90;;;;;;;25.13;100.00;102030.66;5023929;28;20049;-80
2023/07/07 05:36:27;;;;;;;12.45;7.43;;;;;;;25.33;98.32;102035.28;4975378;28;20075;-81
2023/07/07 05:38:55;;;;;;;16.15;7.90;;;;;;;25.53;95.97;102031.78;5032691;28;20053;-81
2023/07/07 05:41:22;;;;;;;11.18;8.05;;;;;;;25.68;94.40;102023.91;5034153;28;20049;-82
2023/07/07 05:43:50;;;;;;;14.57;7.78;;;;;;;25.76;93.63;102029.00;5016312;28;20049;-80
2023/07/07 05:46:18;;;;;;;13.48;8.20;;;;;;;25.85;93.13;102028.63;5027473;28;20056;-79
2023/07/07 05:48:46;;;;;;;13.35;7.75;;;;;;;25.99;92.29;102035.28;5029134;28;20057;-83
2023/07/07 05:51:17;;;;;;;12.05;8.02;;;;;;;26.21;91.10;102041.50;5004410;28;20056;-81
2023/07/07 05:53:45;;;;;;;12.02;6.80;;;;;;;26.41;88.76;102046.03;5016166;28;20057;-80
2023/07/07 05:56:20;;;;;;;10.32;6.97;;;;;;;26.62;86.46;102046.94;5000030;28;20068;-80
2023/07/07 05:58:50;;;;;;;12.10;6.75;;;;;;;26.73;85.66;102041.03;5029531;28;20112;-83
2023/07/07 06:01:17;;;;;;;10.05;7.57;;;;;;;26.86;84.97;102045.88;5017372;28;20049;-81
2023/07/07 06:03:46;;;;;;;12.45;7.03;;;;;;;26.90;82.74;102040.25;5043520;28;20057;-82
2023/07/07 06:06:13;;;;;;;12.55;7.50;;;;;;;26.96;80.09;102045.38;5012523;28;20056;-83
2023/07/07 06:08:41;;;;;;;11.50;8.02;;;;;;;26.90;79.00;102040.25;4986431;28;20052;-82
2023/07/07 06:11:08;;;;;;;9.43;6.70;;;;;;;26.76;79.57;102050.81;4994360;28;20057;-81
2023/07/07 06:13:36;;;;;;;11.63;7.10;;;;;;;26.70;79.76;102059.22;5003729;28;20075;-81
2023/07/07 06:16:05;;;;;;;11.50;7.05;;;;;;;26.64;77.41;102052.28;5015408;28;20045;-83
2023/07/07 06:18:34;;;;;;;6.50;5.80;;;;;;;26.43;77.57;102060.38;5049377;28;20128;-83
2023/07/07 06:21:02;;;;;;;9.40;7.68;;;;;;;26.10;79.49;102056.44;5025831;28;20300;-82
2023/07/07 06:23:31;;;;;;;11.13;6.78;;;;;;;25.68;79.28;102071.63;5024089;28;20052;-82
2023/07/07 06:26:01;;;;;;;10.48;6.72;;;;;;;25.36;82.15;102075.63;5047864;28;20052;-84
2023/07/07 06:28:29;;;;;;;12.00;6.68;;;;;;;25.20;84.27;102072.63;5015007;28;20080;-82
2023/07/07 06:30:57;;;;;;;10.83;7.10;;;;;;;25.19;84.61;102069.03;5013818;28;20049;-82
2023/07/07 06:33:26;;;;;;;9.80;6.57;;;;;;;25.26;84.25;102076.00;5020005;28;24086;-83
2023/07/07 06:35:53;;;;;;;9.50;6.15;;;;;;;25.35;83.93;102068.47;5047074;28;20049;-83
2023/07/07 06:38:20;;;;;;;8.52;6.68;;;;;;;25.34;83.21;102077.53;5001580;28;22583;-83
2023/07/07 06:40:50;;;;;;;9.30;6.27;;;;;;;25.34;83.53;102082.91;5050312;28;20052;-83
2023/07/07 06:43:20;;;;;;;9.30;6.63;;;;;;;25.24;83.04;102077.00;4999703;28;20042;-84
2023/07/07 06:45:51;;;;;;;;;;;;;;;25.01;84.00;102084.13;5033301;28;20057;-82
2023/07/07 06:48:18;;;;;;;;;;;;;;;24.76;86.03;102084.16;5024514;28;19929;-82
2023/07/07 06:50:45;;;;;;;11.02;6.70;;;;;;;24.45;85.31;102085.22;5011826;28;20284;-83
2023/07/07 06:53:13;;;;;;;10.50;5.90;;;;;;;24.18;87.29;102079.00;5022858;28;20045;-82
2023/07/07 06:55:40;;;;;;;12.93;7.20;;;;;;;23.94;88.75;102089.66;5037453;28;20056;-82
2023/07/07 06:58:11;;;;;;;9.38;6.25;;;;;;;23.71;90.57;102082.31;5023291;28;20045;-83
2023/07/07 07:00:39;;;;;;;11.93;6.90;;;;;;;23.52;91.17;102084.72;5043499;28;20060;-83
2023/07/07 07:03:06;;;;;;;7.55;5.95;;;;;;;23.38;92.93;102088.75;5030278;28;20072;-83
2023/07/07 07:05:34;;;;;;;10.95;6.40;;;;;;;23.27;94.00;102087.28;5018234;28;20500;-83
2023/07/07 07:08:02;;;;;;;8.77;5.90;;;;;;;23.23;97.66;102077.56;5001164;28;20048;-83
2023/07/07 07:10:29;;;;;;;8.18;5.82;;;;;;;23.20;98.15;102090.22;4993100;28;20053;-83
2023/07/07 07:12:56;;;;;;;7.82;5.53;;;;;;;23.16;96.73;102092.09;5018083;28;20057;-82
2023/07/07 07:15:24;;;;;;;10.45;6.13;;;;;;;23.11;96.12;102094.91;5009725;28;20494;-82
2023/07/07 07:17:52;;;;;;;10.43;5.60;;;;;;;23.10;96.78;102081.50;5027540;28;20060;-83
2023/07/07 07:20:19;;;;;;;5.75;5.13;;;;;;;23.10;98.54;102100.34;5029934;28;20033;-84
2023/07/07 07:22:48;;;;;;;9.10;5.13;;;;;;;23.13;99.21;102094.88;5002234;28;20069;-84
2023/07/07 07:25:15;;;;;;;8.13;4.75;;;;;;;23.15;98.43;102098.41;4987915;28;20061;-84
2023/07/07 07:27:43;;;;;;;5.18;4.22;;;;;;;23.09;95.15;102103.97;5048904;28;20063;-84
2023/07/07 07:30:15;;;;;;;5.60;4.10;;;;;;;23.01;96.23;102097.91;5033647;28;20076;-84
2023/07/07 07:32:43;;;;;;;6.72;4.10;;;;;;;23.00;96.10;102093.44;5054901;28;20393;-84
2023/07/07 07:35:11;;;;;;;9.05;4.35;;;;;;;23.01;96.28;102104.16;5031225;28;20049;-84
2023/07/07 07:37:39;;;;;;;6.38;4.65;;;;;;;22.99;93.17;102097.94;5052871;28;20523;-85
2023/07/07 07:40:07;;;;;;;6.70;3.83;;;;;;;22.99;95.82;102100.63;5017216;28;20041;-83
2023/07/07 07:42:37;;;;;;;6.93;4.20;;;;;;;23.02;95.64;102097.84;5030138;28;20061;-83
2023/07/07 07:45:05;;;;;;;7.07;4.15;;;;;;;23.09;95.24;102096.78;5036129;28;20041;-84
2023/07/07 07:47:34;;;;;;;6.25;3.33;;;;;;;23.13;94.84;102103.81;5034641;28;20056;-85
2023/07/07 07:50:03;;;;;;;10.57;3.08;;;;;;;23.14;93.68;102102.03;5018915;28;20053;-83
2023/07/07 07:52:31;;;;;;;5.05;3.38;;;;;;;23.16;94.55;102095.66;5025921;28;20053;-83
2023/07/07 07:54:58;;;;;;;7.78;3.58;;;;;;;23.22;94.55;102101.81;5014911;28;20063;-81
2023/07/07 07:57:29;;;;;;;6.22;3.20;;;;;;;23.27;95.74;102099.84;5014994;28;20056;-83
2023/07/07 07:59:56;;;;;;;4.43;3.33;;;;;;;23.32;94.31;102105.97;5030634;28;20052;-82
2023/07/07 08:02:25;;;;;;;5.15;3.20;;;;;;;23.40;93.19;102100.34;5042026;28;20471;-82
2023/07/07 08:04:54;;;;;;;10.20;3.03;;;;;;;23.44;93.19;102099.31;5031637;28;20061;-82
2023/07/07 08:07:22;;;;;;;7.50;3.38;;;;;;;23.49;92.71;102103.63;5016207;28;20054;-83
2023/07/07 08:09:50;;;;;;;7.07;2.97;;;;;;;23.55;93.75;102102.56;5034251;28;20045;-83
2023/07/07 08:12:18;;;;;;;4.75;2.83;;;;;;;23.57;91.28;102107.91;4983293;28;22186;-83
2023/07/07 08:14:46;;;;;;;4.90;3.42;;;;;;;23.59;91.47;102104.25;5035560;28;20495;-82
2023/07/07 08:17:17;;;;;;;4.07;2.90;;;;;;;23.61;89.54;102107.75;5033086;28;20049;-83
2023/07/07 08:19:48;;;;;;;5.50;2.50;;;;;;;23.61;88.72;102112.25;5047673;28;20083;-81
2023/07/07 08:22:22;;;;;;;6.63;3.00;;;;;;;23.56;87.11;102115.09;5033306;28;20049;-81
2023/07/07 08:24:56;;;;;;;3.90;2.28;;;;;;;23.51;87.43;102115.22;5025148;28;20053;-82
2023/07/07 08:27:26;;;;;;;5.80;2.40;;;;;;;23.46;85.79;102116.28;4986888;28;20116;-82
2023/07/07 08:29:57;;;;;;;3.13;2.40;;;;;;;23.47;86.42;102118.06;5045081;28;20052;-83
2023/07/07 08:32:26;;;;;;;4.63;2.35;;;;;;;23.50;85.79;102124.22;5004817;28;20044;-80
2023/07/07 08:34:54;;;;;;;4.60;2.60;;;;;;;23.51;84.73;102119.72;5042633;28;20052;-81
2023/07/07 08:37:24;;;;;;;3.97;3.00;;;;;;;23.50;84.71;102118.84;5008554;28;20053;-81
2023/07/07 08:39:52;;;;;;;3.05;2.10;;;;;;;23.51;84.23;102119.72;5045263;28;20052;-80
2023/07/07 08:42:29;;;;;;;3.10;2.10;;;;;;;23.55;83.92;102118.69;5010844;28;20053;-80
2023/07/07 08:44:59;;;;;;;3.60;2.20;;;;;;;23.58;83.20;102120.44;5016943;28;20668;-81
2023/07/07 08:47:55;;;;;;;6.35;2.38;;;;;;;23.59;81.20;102128.47;5024815;28;20049;-80
2023/07/07 08:50:38;;;;;;;4.00;2.38;;;;;;;23.61;83.07;102125.69;5047979;28;20051;-81
2023/07/07 08:53:24;;;;;;;6.75;2.20;;;;;;;23.66;80.05;102131.81;5019096;28;20049;-83
2023/07/07 08:56:22;;;;;;;2.35;2.13;;;;;;;23.71;82.52;102124.50;5050484;28;20060;-82
2023/07/07 08:59:08;;;;;;;8.48;2.13;;;;;;;23.73;79.99;102126.19;5022605;28;20131;-82
2023/07/07 09:01:41;;;;;;;4.47;2.13;;;;;;;23.71;77.32;102133.44;5041852;28;20042;-83
2023/07/07 09:04:15;;;;;;;2.78;2.10;;;;;;;23.72;78.35;102137.91;5043357;28;20049;-81
2023/07/07 09:06:58;;;;;;;8.07;2.17;;;;;;;23.73;75.07;102136.09;5024655;28;20056;-81
2023/07/07 09:09:53;;;;;;;2.00;1.58;;;;;;;23.77;67.09;102131.50;5037613;28;20071;-82
2023/07/07 09:12:38;;;;;;;3.67;2.20;;;;;;;23.77;72.19;102135.06;5038219;28;20041;-82
2023/07/07 09:15:18;;;;;;;2.67;1.80;;;;;;;23.83;68.11;102137.56;5023669;28;20052;-82
2023/07/07 09:17:52;;;;;;;2.17;1.80;;;;;;;23.91;70.34;102123.88;5035510;28;20050;-83
2023/07/07 09:20:24;;;;;;;6.18;2.00;;;;;;;23.97;69.56;102131.78;5038486;28;20053;-81
2023/07/07 09:23:04;;;;;;;4.47;1.92;;;;;;;23.97;67.27;102129.09;5036794;28;20053;-83
2023/07/07 09:25:42;;;;;;;2.88;1.80;;;;;;;24.03;68.08;102128.88;5044324;28;20056;-82
2023/07/07 09:28:18;;;;;;;3.78;1.95;;;;;;;24.10;68.98;102141.19;5013358;28;20049;-83
2023/07/07 09:30:51;;;;;;;4.07;2.33;;;;;;;24.15;67.13;102132.09;5001094;28;20049;-82
2023/07/07 09:33:22;;;;;;;3.88;1.88;;;;;;;24.13;65.70;102137.53;5033587;28;20048;-80
2023/07/07 09:36:06;;;;;;;4.35;2.17;;;;;;;24.15;65.40;102132.97;5031047;28;20049;-80
2023/07/07 09:38:59;;;;;;;4.50;2.15;;;;;;;24.19;66.21;102145.38;5029728;28;20834;-81
2023/07/07 09:42:05;;;;;;;3.10;2.03;;;;;;;24.19;60.39;102139.13;5013729;28;20067;-80
2023/07/07 09:44:39;;;;;;;3.97;2.22;;;;;;;24.21;61.21;102145.34;5022813;28;20065;-80
2023/07/07 09:47:27;;;;;;;2.40;2.15;;;;;;;24.28;65.72;102145.06;5013260;28;20040;-81
2023/07/07 09:50:11;;;;;;;5.07;2.78;;;;;;;24.35;62.51;102143.06;5047017;28;20169;-81
2023/07/07 09:52:56;;;;;;;2.70;2.17;;;;;;;24.32;61.73;102143.16;5038292;28;20054;-83
2023/07/07 09:55:28;;;;;;;3.50;2.15;;;;;;;24.22;64.17;102145.28;5042528;28;20053;-82
2023/07/07 09:58:02;;;;;;;2.72;1.92;;;;;;;24.04;64.31;102141.38;5043370;28;20080;-82
2023/07/07 10:00:33;;;;;;;3.80;1.88;;;;;;;23.94;66.12;102145.31;5054191;28;20053;-83
2023/07/07 10:03:32;;;;;;;6.20;2.20;;;;;;;24.00;66.12;102139.72;5013204;28;20056;-80
2023/07/07 10:06:11;;;;;;;3.53;2.58;;;;;;;24.09;62.68;102141.25;5058346;28;20053;-82
2023/07/07 10:08:38;;;;;;;3.13;2.15;;;;;;;24.15;64.36;102142.84;5043701;28;20083;-82
2023/07/07 10:11:28;;;;;;;4.15;2.15;;;;;;;24.29;66.79;102140.56;5026594;28;20523;-81
2023/07/07 10:14:07;;;;;;;3.40;1.80;;;;;;;24.43;63.63;102140.97;5024845;28;20065;-82
2023/07/07 10:16:49;;;;;;;6.70;2.60;;;;;;;24.60;64.49;102144.94;5048808;28;20057;-84
2023/07/07 10:19:19;;;;;;;4.43;2.55;;;;;;;24.68;63.46;102140.16;5007516;28;20053;-82
2023/07/07 10:21:47;;;;;;;5.05;2.35;;;;;;;24.64;63.74;102144.78;5034950;28;20275;-83
2023/07/07 10:24:15;;;;;;;4.57;2.17;;;;;;;24.62;64.90;102143.94;5011745;28;20396;-83
2023/07/07 10:26:47;;;;;;;3.22;2.10;;;;;;;24.67;63.42;102141.97;5037293;28;20049;-83
2023/07/07 10:29:22;;;;;;;2.67;2.10;;;;;;;24.72;61.83;102139.09;5034162;28;20059;-83
2023/07/07 10:31:51;;;;;;;4.70;2.42;;;;;;;24.82;65.55;102134.25;5050390;28;20052;-83
2023/07/07 10:34:38;;;;;;;3.35;2.10;;;;;;;24.95;63.23;102130.16;4990330;28;20053;-83
2023/07/07 10:37:19;;;;;;;4.28;2.20;;;;;;;25.09;62.06;102130.56;5008024;28;20048;-84
2023/07/07 10:39:55;;;;;;;2.78;1.80;;;;;;;25.25;61.37;102143.50;5027473;28;20052;-83
2023/07/07 10:42:24;;;;;;;3.70;2.00;;;;;;;25.25;58.88;102140.78;5023476;28;20045;-83
2023/07/07 10:44:54;;;;;;;3.47;1.73;;;;;;;25.22;60.23;102136.38;5039142;28;20048;-82
2023/07/07 10:47:28;;;;;;;7.07;2.00;;;;;;;25.26;60.91;102146.13;5022913;28;20251;-86
2023/07/07 10:49:56;;;;;;;3.63;1.85;;;;;;;25.23;60.51;102146.25;5014645;28;20500;-82
2023/07/07 10:52:36;;;;;;;3.63;2.20;;;;;;;25.08;58.48;102142.28;5011454;28;20049;-85
2023/07/07 10:55:35;;;;;;;2.20;2.05;;;;;;;25.04;60.57;102146.00;5041091;28;20068;-82
2023/07/07 10:58:36;;;;;;;2.88;2.13;;;;;;;25.12;57.60;102151.13;5041647;28;20054;-84
2023/07/07 11:01:18;;;;;;;3.95;2.63;;;;;;;25.24;59.83;102150.72;5048666;28;20045;-85
2023/07/07 11:03:56;;;;;;;3.65;2.55;;;;;;;25.38;59.83;102146.59;4998428;28;20082;-85
2023/07/07 11:06:39;;;;;;;2.20;1.70;;;;;;;25.55;58.37;102137.84;5044643;28;20496;-85
2023/07/07 11:09:15;;;;;;;2.30;2.08;;;;;;;25.68;59.10;102156.19;5037353;28;20057;-86
2023/07/07 11:12:05;;;;;;;5.80;2.20;;;;;;;25.70;53.92;102149.88;5026193;28;20081;-84
2023/07/07 11:14:50;;;;;;;3.28;2.42;;;;;;;25.70;53.54;102141.78;5034096;28;20054;-86
2023/07/07 11:17:39;;;;;;;5.20;1.65;;;;;;;25.70;55.01;102139.06;5036748;28;20408;-84
2023/07/07 11:20:29;;;;;;;2.05;1.90;;;;;;;25.81;53.85;102144.91;5021539;28;20123;-85
2023/07/07 11:23:31;;;;;;;4.68;2.10;;;;;;;25.86;56.35;102142.91;5043725;28;20053;-85
2023/07/07 11:26:31;;;;;;;5.65;2.55;;;;;;;25.73;55.15;102141.63;5055455;28;20044;-85
2023/07/07 11:28:59;;;;;;;2.92;1.83;;;;;;;25.63;56.56;102144.72;5012682;28;20073;-84
2023/07/07 11:31:30;;;;;;;4.57;1.98;;;;;;;25.66;55.96;102141.00;5055234;28;20045;-84
2023/07/07 11:34:30;;;;;;;5.80;2.05;;;;;;;25.68;55.21;102141.81;5020996;28;20053;-84
2023/07/07 11:37:38;;;;;;;5.07;2.05;;;;;;;25.71;55.42;102146.22;5033925;28;20053;-83
2023/07/07 11:40:22;;;;;;;5.28;2.10;;;;;;;25.87;56.79;102139.25;5040701;28;20056;-84
2023/07/07 11:43:16;;;;;;;2.70;2.00;;;;;;;25.98;51.90;102130.75;5030964;28;20053;-84
2023/07/07 11:45:58;;;;;;;3.08;2.25;;;;;;;26.11;51.29;102140.09;5037799;28;20408;-84